createdAt,value
2017-09-03T10:42:53.050Z,28.6
2017-09-03T10:43:54.440Z,28.7
2017-09-03T10:44:55.832Z,28.7
2017-09-03T10:45:57.233Z,28.3
2017-09-03T10:46:58.626Z,28.6
2017-09-03T10:48:00.030Z,28.9
2017-09-03T10:49:01.429Z,29.4
2017-09-03T10:50:02.815Z,29.4
2017-09-03T10:51:04.207Z,29.9
2017-09-03T10:52:05.602Z,30.0
2017-09-03T10:53:06.994Z,30.3
2017-09-03T10:54:08.393Z,30.4
2017-09-03T10:55:50.783Z,30.2
2017-09-03T10:56:52.175Z,29.6
2017-09-03T10:57:53.574Z,30.0
2017-09-03T10:58:54.987Z,30.4
2017-09-03T10:59:56.381Z,30.8
2017-09-03T11:00:57.776Z,30.6
2017-09-03T11:01:59.170Z,30.2
2017-09-03T11:03:00.562Z,29.8
2017-09-03T11:04:41.955Z,29.7
2017-09-03T11:05:43.352Z,29.5
2017-09-03T11:06:44.742Z,29.4
2017-09-03T11:07:46.137Z,29.4
2017-09-03T11:08:47.531Z,29.0
2017-09-03T11:09:48.925Z,28.7
2017-09-03T11:10:50.326Z,28.7
2017-09-03T11:11:51.721Z,28.9
2017-09-03T11:12:53.107Z,29.4
2017-09-03T11:13:54.506Z,29.8
2017-09-03T11:14:55.901Z,30.0
2017-09-03T11:15:57.293Z,30.3
2017-09-03T11:16:58.688Z,30.4
2017-09-03T11:18:00.085Z,30.6
2017-09-03T11:19:01.484Z,30.6
2017-09-03T11:20:02.876Z,31.0
2017-09-03T11:21:04.269Z,31.1
2017-09-03T11:22:05.663Z,31.4
2017-09-03T11:23:07.056Z,31.6
2017-09-03T11:24:08.453Z,31.6
2017-09-03T11:25:09.859Z,31.6
2017-09-03T11:26:11.255Z,31.6
2017-09-03T11:27:12.649Z,31.1
2017-09-03T11:28:14.044Z,30.7
2017-09-03T11:29:15.454Z,30.2
2017-09-03T11:30:16.851Z,30.7
2017-09-03T11:31:18.246Z,30.6
2017-09-03T11:32:19.663Z,31.2
2017-09-03T11:33:21.098Z,31.3
2017-09-03T11:34:22.494Z,31.1
2017-09-03T11:35:23.886Z,30.9
2017-09-03T11:37:05.285Z,30.5
2017-09-03T11:38:06.678Z,30.4
2017-09-03T11:39:08.068Z,30.3
2017-09-03T11:40:09.485Z,30.1
2017-09-03T11:41:10.879Z,30.6
2017-09-03T11:42:12.283Z,30.4
2017-09-03T11:43:13.688Z,29.7
2017-09-03T11:44:15.081Z,28.6
2017-09-03T11:45:16.473Z,28.6
2017-09-03T11:46:17.856Z,28.4
2017-09-03T11:47:19.263Z,28.3
2017-09-03T11:48:20.659Z,28.4
2017-09-03T11:49:22.052Z,28.5
2017-09-03T11:50:23.447Z,29.0
2017-09-03T11:51:24.844Z,29.1
2017-09-03T11:52:26.234Z,29.1
2017-09-03T11:53:27.624Z,29.0
2017-09-03T11:54:29.035Z,28.8
2017-09-03T11:55:30.422Z,28.8
2017-09-03T11:56:31.826Z,28.9
2017-09-03T11:57:33.218Z,28.8
2017-09-03T11:58:34.622Z,28.9
2017-09-03T11:59:36.017Z,29.0
2017-09-03T12:00:37.406Z,29.4
2017-09-03T12:01:38.805Z,30.0
2017-09-03T12:02:40.203Z,30.2
2017-09-03T12:03:41.597Z,30.1
2017-09-03T12:04:42.991Z,29.4
2017-09-03T12:05:44.382Z,29.1
2017-09-03T12:06:45.780Z,29.0
2017-09-03T12:07:47.177Z,28.5
2017-09-03T12:09:29.583Z,28.2
2017-09-03T12:10:30.985Z,28.1
2017-09-03T12:11:32.367Z,28.5
2017-09-03T12:12:33.758Z,29.0
2017-09-03T12:13:35.156Z,29.3
2017-09-03T12:14:36.544Z,29.6
2017-09-03T12:15:37.944Z,29.8
2017-09-03T12:16:39.332Z,30.0
2017-09-03T12:17:40.733Z,30.1
2017-09-03T12:18:42.125Z,30.3
2017-09-03T12:19:43.515Z,30.0
2017-09-03T12:20:44.951Z,29.9
2017-09-03T12:21:46.345Z,30.0
2017-09-03T12:22:47.739Z,30.3
2017-09-03T12:23:49.157Z,30.9
2017-09-03T12:24:50.583Z,31.3
2017-09-03T12:25:51.976Z,31.6
2017-09-03T12:26:53.387Z,31.9
2017-09-03T12:27:54.781Z,31.9
2017-09-03T12:28:56.178Z,31.9
2017-09-03T12:29:57.583Z,32.1
2017-09-03T12:30:58.977Z,31.6
2017-09-03T12:32:00.451Z,31.6
2017-09-03T12:33:01.849Z,31.8
2017-09-03T12:34:03.244Z,31.9
2017-09-03T12:35:04.677Z,31.9
2017-09-03T12:36:06.041Z,32.4
2017-09-03T12:37:07.473Z,32.4
2017-09-03T12:38:08.873Z,32.4
2017-09-03T12:39:10.291Z,32.4
2017-09-03T12:40:11.690Z,32.4
2017-09-03T12:41:13.090Z,32.4
2017-09-03T12:42:14.487Z,32.4
2017-09-03T12:43:15.888Z,32.1
2017-09-03T12:44:17.293Z,32.1
2017-09-03T12:45:18.691Z,32.3
2017-09-03T12:46:20.093Z,32.6
2017-09-03T12:48:02.484Z,32.8
2017-09-03T12:49:03.877Z,33.3
2017-09-03T12:50:05.276Z,33.5
2017-09-03T12:51:06.669Z,33.6
2017-09-03T12:52:08.065Z,33.6
2017-09-03T12:53:09.467Z,33.8
2017-09-03T12:54:10.865Z,33.7
2017-09-03T12:55:12.263Z,33.4
2017-09-03T12:56:13.664Z,33.5
2017-09-03T12:57:15.063Z,33.5
2017-09-03T12:58:16.460Z,33.6
2017-09-03T12:59:17.860Z,33.6
2017-09-03T13:00:19.254Z,33.5
2017-09-03T13:01:20.661Z,33.5
2017-09-03T13:02:22.062Z,33.7
2017-09-03T13:04:04.458Z,33.4
2017-09-03T13:05:05.855Z,33.6
2017-09-03T13:06:07.253Z,33.9
2017-09-03T13:07:08.668Z,33.9
2017-09-03T13:08:10.079Z,33.3
2017-09-03T13:09:11.480Z,32.9
2017-09-03T13:10:12.879Z,32.6
2017-09-03T13:11:14.279Z,32.9
2017-09-03T13:12:15.676Z,32.9
2017-09-03T13:13:17.073Z,33.1
2017-09-03T13:14:18.466Z,33.4
2017-09-03T13:15:19.871Z,33.5
2017-09-03T13:16:21.273Z,33.3
2017-09-03T13:17:22.676Z,33.5
2017-09-03T13:18:24.076Z,33.3
2017-09-03T13:19:25.470Z,33.0
2017-09-03T13:20:26.869Z,33.3
2017-09-03T13:21:28.267Z,33.5
2017-09-03T13:22:29.672Z,33.8
2017-09-03T13:23:31.063Z,33.5
2017-09-03T13:24:32.463Z,33.3
2017-09-03T13:25:33.863Z,33.2
2017-09-03T13:26:35.286Z,32.9
2017-09-03T13:27:36.683Z,32.9
2017-09-03T13:28:38.127Z,33.2
2017-09-03T13:29:39.549Z,33.5
2017-09-03T13:30:41.015Z,33.7
2017-09-03T13:31:42.413Z,33.8
2017-09-03T13:32:43.808Z,33.2
2017-09-03T13:33:45.239Z,33.3
2017-09-03T13:34:46.629Z,33.1
2017-09-03T13:35:48.106Z,33.3
2017-09-03T13:36:49.518Z,33.5
2017-09-03T13:37:50.924Z,33.8
2017-09-03T13:38:52.323Z,33.7
2017-09-03T13:39:53.728Z,33.7
2017-09-03T13:40:55.119Z,33.7
2017-09-03T13:41:56.519Z,33.5
2017-09-03T13:42:57.919Z,33.6
2017-09-03T13:43:59.317Z,33.9
2017-09-03T13:45:00.725Z,34.0
2017-09-03T13:46:02.126Z,33.6
2017-09-03T13:47:03.526Z,32.9
2017-09-03T13:48:04.941Z,32.5
2017-09-03T13:49:06.331Z,32.7
2017-09-03T13:50:07.723Z,32.8
2017-09-03T13:51:09.124Z,32.6
2017-09-03T13:52:10.521Z,32.1
2017-09-03T13:53:11.919Z,32.0
2017-09-03T13:54:13.317Z,31.3
2017-09-03T13:55:14.710Z,30.8
2017-09-03T13:56:16.106Z,30.4
2017-09-03T13:57:17.510Z,30.4
2017-09-03T13:58:18.907Z,30.2
2017-09-03T13:59:20.308Z,30.0
2017-09-03T14:00:21.704Z,30.0
2017-09-03T14:01:23.109Z,30.2
2017-09-03T14:02:24.500Z,30.3
2017-09-03T14:03:25.921Z,30.3
2017-09-03T14:04:27.319Z,30.5
2017-09-03T14:05:28.712Z,30.3
2017-09-03T14:06:30.113Z,30.4
2017-09-03T14:07:31.529Z,30.5
2017-09-03T14:09:12.914Z,29.8
2017-09-03T14:10:14.315Z,29.3
2017-09-03T14:11:36.317Z,29.2
2017-09-03T14:12:37.706Z,29.1
2017-09-03T14:14:00.740Z,28.7
2017-09-03T14:15:02.138Z,28.3
2017-09-03T14:16:03.522Z,28.2
2017-09-03T14:17:04.924Z,27.9
2017-09-03T14:18:06.314Z,27.7
2017-09-03T14:19:07.707Z,27.6
2017-09-03T14:20:09.096Z,27.5
2017-09-03T14:21:10.497Z,27.5
2017-09-03T14:22:11.885Z,27.4
2017-09-03T14:23:13.274Z,27.5
2017-09-03T14:24:55.662Z,27.5
2017-09-03T14:25:57.041Z,27.4
2017-09-03T14:26:58.442Z,27.2
2017-09-03T14:27:59.829Z,27.0
2017-09-03T14:29:01.221Z,26.6
2017-09-03T14:30:02.609Z,26.3
2017-09-03T14:31:04.113Z,26.5
2017-09-03T14:32:05.834Z,26.3
2017-09-03T14:33:07.276Z,26.4
2017-09-03T14:34:08.709Z,26.7
2017-09-03T14:35:10.105Z,26.8
2017-09-03T14:36:11.503Z,26.4
2017-09-03T14:37:12.924Z,26.5
2017-09-03T14:38:14.327Z,26.5
2017-09-03T14:39:15.784Z,26.5
2017-09-03T14:40:58.153Z,26.4
2017-09-03T14:41:59.538Z,26.2
2017-09-03T14:43:00.929Z,26.1
2017-09-03T14:44:02.310Z,25.9
2017-09-03T14:45:03.951Z,25.9
2017-09-03T14:46:05.340Z,25.8
2017-09-03T14:47:06.729Z,25.6
2017-09-03T14:48:08.151Z,25.7
2017-09-03T14:49:09.580Z,25.8
2017-09-03T14:50:11.031Z,26.1
2017-09-03T14:51:12.419Z,26.4
2017-09-03T14:52:13.821Z,26.8
2017-09-03T14:53:15.206Z,26.9
2017-09-03T14:54:16.596Z,26.9
2017-09-03T14:55:17.993Z,27.2
2017-09-03T14:56:19.381Z,27.5
2017-09-03T14:57:20.832Z,27.8
2017-09-03T14:58:22.288Z,28.0
2017-09-03T14:59:23.756Z,28.2
2017-09-03T15:00:25.160Z,28.6
2017-09-03T15:01:26.569Z,28.3
2017-09-03T15:02:28.011Z,28.6
2017-09-03T15:03:29.398Z,28.2
2017-09-03T15:04:30.806Z,27.9
2017-09-03T15:05:32.197Z,27.8
2017-09-03T15:06:33.585Z,27.4
2017-09-03T15:07:34.982Z,27.5
2017-09-03T15:08:36.374Z,27.6
2017-09-03T15:09:37.790Z,27.5
2017-09-03T15:10:39.200Z,27.5
2017-09-03T15:11:40.590Z,27.4
2017-09-03T15:13:22.978Z,27.2
2017-09-03T15:14:24.375Z,27.1
2017-09-03T15:15:25.773Z,26.9
2017-09-03T15:16:27.158Z,26.6
2017-09-03T15:17:28.542Z,26.6
2017-09-03T15:18:29.931Z,26.6
2017-09-03T15:19:31.329Z,26.3
2017-09-03T15:20:32.710Z,26.0
2017-09-03T15:21:34.099Z,26.0
2017-09-03T15:22:35.490Z,25.7
2017-09-03T15:23:36.876Z,25.7
2017-09-03T15:24:38.261Z,25.7
2017-09-03T15:25:39.645Z,25.5
2017-09-03T15:26:41.037Z,25.5
2017-09-03T15:27:42.425Z,25.6
2017-09-03T15:29:24.810Z,25.4
2017-09-03T15:30:26.228Z,25.2
2017-09-03T15:31:27.623Z,25.2
2017-09-03T15:32:29.013Z,25.5
2017-09-03T15:33:30.392Z,25.7
2017-09-03T15:34:31.794Z,25.9
2017-09-03T15:35:33.261Z,26.0
2017-09-03T15:36:35.099Z,26.2
2017-09-03T15:37:36.528Z,26.4
2017-09-03T15:38:37.916Z,26.5
2017-09-03T15:39:39.323Z,26.6
2017-09-03T15:40:40.796Z,26.6
2017-09-03T15:41:42.192Z,26.4
2017-09-03T15:42:43.577Z,26.3
2017-09-03T15:43:44.957Z,26.0
2017-09-03T15:45:27.348Z,25.9
2017-09-03T15:46:28.738Z,25.8
2017-09-03T15:47:30.125Z,25.6
2017-09-03T15:48:31.508Z,25.6
2017-09-03T15:49:32.891Z,25.5
2017-09-03T15:50:34.311Z,25.4
2017-09-03T15:51:35.729Z,25.3
2017-09-03T15:52:37.119Z,25.4
2017-09-03T15:53:38.510Z,25.2
2017-09-03T15:54:39.916Z,25.0
2017-09-03T15:55:41.316Z,24.9
2017-09-03T15:56:42.762Z,24.9
2017-09-03T15:57:44.141Z,24.8
2017-09-03T15:58:45.715Z,24.8
2017-09-03T15:59:47.107Z,24.8
2017-09-03T16:00:48.520Z,24.7
2017-09-03T16:01:49.942Z,24.6
2017-09-03T16:02:51.391Z,24.5
2017-09-03T16:03:52.774Z,24.3
2017-09-03T16:04:54.158Z,24.2
2017-09-03T16:05:55.660Z,24.1
2017-09-03T16:06:57.088Z,24.0
2017-09-03T16:07:58.520Z,23.9
2017-09-03T16:08:59.911Z,23.9
2017-09-03T16:10:01.352Z,23.8
2017-09-03T16:11:02.817Z,23.8
2017-09-03T16:12:04.242Z,23.9
2017-09-03T16:13:05.659Z,23.9
2017-09-03T16:14:07.099Z,23.9
2017-09-03T16:15:08.493Z,23.7
2017-09-03T16:16:09.967Z,23.6
2017-09-03T16:17:11.374Z,23.5
2017-09-03T16:18:12.754Z,23.4
2017-09-03T16:19:14.227Z,23.6
2017-09-03T16:20:15.623Z,23.5
2017-09-03T16:21:17.008Z,23.4
2017-09-03T16:22:18.483Z,23.5
2017-09-03T16:23:19.873Z,23.5
2017-09-03T16:24:21.336Z,23.4
2017-09-03T16:25:22.708Z,23.4
2017-09-03T16:26:24.095Z,23.3
2017-09-03T16:27:25.488Z,23.4
2017-09-03T16:28:26.873Z,23.5
2017-09-03T16:29:28.253Z,23.5
2017-09-03T16:30:29.636Z,23.6
2017-09-03T16:31:31.020Z,23.7
2017-09-03T16:32:32.402Z,23.6
2017-09-03T16:33:33.786Z,23.5
2017-09-03T16:34:35.170Z,23.5
2017-09-03T16:35:36.560Z,23.4
2017-09-03T16:36:38.002Z,23.5
2017-09-03T16:37:39.387Z,23.5
2017-09-03T16:38:40.800Z,23.5
2017-09-03T16:39:42.185Z,23.4
2017-09-03T16:40:43.584Z,23.5
2017-09-03T16:41:45.021Z,23.5
2017-09-03T16:42:46.453Z,23.5
2017-09-03T16:43:47.836Z,23.5
2017-09-03T16:44:49.229Z,23.4
2017-09-03T16:45:50.738Z,23.5
2017-09-03T16:46:52.111Z,23.4
2017-09-03T16:47:53.496Z,23.3
2017-09-03T16:48:54.932Z,23.3
2017-09-03T16:49:56.333Z,23.2
2017-09-03T16:50:57.838Z,23.3
2017-09-03T16:51:59.289Z,23.2
2017-09-03T16:53:00.689Z,23.2
2017-09-03T16:54:02.094Z,23.2
2017-09-03T16:55:03.491Z,23.2
2017-09-03T16:56:04.879Z,23.2
2017-09-03T16:57:06.318Z,23.2
2017-09-03T16:58:07.701Z,23.2
2017-09-03T16:59:09.085Z,23.3
2017-09-03T17:00:10.517Z,23.2
2017-09-03T17:01:11.906Z,23.2
2017-09-03T17:02:13.287Z,23.2
2017-09-03T17:03:14.671Z,23.2
2017-09-03T17:04:16.117Z,23.1
2017-09-03T17:05:58.559Z,23.1
2017-09-03T17:06:59.945Z,23.1
2017-09-03T17:08:01.344Z,23.1
2017-09-03T17:09:02.729Z,23.0
2017-09-03T17:10:04.117Z,23.0
2017-09-03T17:11:05.494Z,22.9
2017-09-03T17:12:06.874Z,22.9
2017-09-03T17:13:08.257Z,22.8
2017-09-03T17:14:09.644Z,22.8
2017-09-03T17:15:11.078Z,22.7
2017-09-03T17:16:12.460Z,22.6
2017-09-03T17:17:13.842Z,22.5
2017-09-03T17:18:15.222Z,22.4
2017-09-03T17:19:16.618Z,22.2
2017-09-03T17:20:18.002Z,22.1
2017-09-03T17:21:19.379Z,21.9
2017-09-03T17:22:20.772Z,22.0
2017-09-03T17:23:22.150Z,21.9
2017-09-03T17:24:23.545Z,21.8
2017-09-03T17:25:24.976Z,21.8
2017-09-03T17:26:26.464Z,21.8
2017-09-03T17:27:27.833Z,21.5
2017-09-03T17:28:29.255Z,21.4
2017-09-03T17:29:30.734Z,21.3
2017-09-03T17:30:32.133Z,21.2
2017-09-03T17:31:33.563Z,21.1
2017-09-03T17:32:34.969Z,21.1
2017-09-03T17:33:36.441Z,21.0
2017-09-03T17:34:37.895Z,20.9
2017-09-03T17:35:39.341Z,20.9
2017-09-03T17:36:40.787Z,20.9
2017-09-03T17:38:22.171Z,20.8
2017-09-03T17:39:23.550Z,20.8
2017-09-03T17:40:24.924Z,20.6
2017-09-03T17:41:26.353Z,20.6
2017-09-03T17:42:27.730Z,20.5
2017-09-03T17:43:29.111Z,20.4
2017-09-03T17:44:30.499Z,20.2
2017-09-03T17:45:31.877Z,20.2
2017-09-03T17:46:33.255Z,20.2
2017-09-03T17:47:34.638Z,20.2
2017-09-03T17:48:36.042Z,20.1
2017-09-03T17:49:37.425Z,20.1
2017-09-03T17:50:38.888Z,20.1
2017-09-03T17:51:40.302Z,20.0
2017-09-03T17:52:41.675Z,19.8
2017-09-03T17:54:24.040Z,19.7
2017-09-03T17:55:25.435Z,19.8
2017-09-03T17:56:26.816Z,19.7
2017-09-03T17:57:28.192Z,19.6
2017-09-03T17:58:29.571Z,19.6
2017-09-03T17:59:30.958Z,19.4
2017-09-03T18:00:32.332Z,19.4
2017-09-03T18:01:33.720Z,19.3
2017-09-03T18:02:35.095Z,19.2
2017-09-03T18:03:36.500Z,19.1
2017-09-03T18:04:37.858Z,19.0
2017-09-03T18:05:39.234Z,19.0
2017-09-03T18:06:40.607Z,18.8
2017-09-03T18:07:41.998Z,18.8
2017-09-03T18:08:43.375Z,18.7
2017-09-03T18:09:44.748Z,18.7
2017-09-03T18:10:46.137Z,18.7
2017-09-03T18:11:47.519Z,18.7
2017-09-03T18:12:48.905Z,18.6
2017-09-03T18:13:50.271Z,18.6
2017-09-03T18:14:51.656Z,18.5
2017-09-03T18:15:53.032Z,18.5
2017-09-03T18:16:54.418Z,18.4
2017-09-03T18:17:55.784Z,18.3
2017-09-03T18:18:57.161Z,18.4
2017-09-03T18:19:58.527Z,18.5
2017-09-03T18:20:59.914Z,18.2
2017-09-03T18:22:01.432Z,18.3
2017-09-03T18:23:03.425Z,18.3
2017-09-03T18:24:05.024Z,18.2
2017-09-03T18:25:06.788Z,18.2
2017-09-03T18:26:49.234Z,18.1
2017-09-03T18:27:50.594Z,18.1
2017-09-03T18:28:51.963Z,18.1
2017-09-03T18:29:53.374Z,18.1
2017-09-03T18:30:54.746Z,18.1
2017-09-03T18:31:56.425Z,18.1
2017-09-03T18:32:57.849Z,18.0
2017-09-03T18:33:59.325Z,17.9
2017-09-03T18:35:00.689Z,17.9
2017-09-03T18:36:02.061Z,17.8
2017-09-03T18:37:03.445Z,17.7
2017-09-03T18:38:04.815Z,17.7
2017-09-03T18:39:06.237Z,17.7
2017-09-03T18:40:07.617Z,17.7
2017-09-03T18:41:08.988Z,17.6
2017-09-03T18:42:10.362Z,17.6
2017-09-03T18:43:11.735Z,17.5
2017-09-03T18:44:13.116Z,17.5
2017-09-03T18:45:14.490Z,17.6
2017-09-03T18:46:15.884Z,17.5
2017-09-03T18:47:17.258Z,17.5
2017-09-03T18:48:18.633Z,17.5
2017-09-03T18:49:20.017Z,17.5
2017-09-03T18:50:21.405Z,17.4
2017-09-03T18:51:22.776Z,17.5
2017-09-03T18:52:24.150Z,17.5
2017-09-03T18:53:25.522Z,17.4
2017-09-03T18:54:27.023Z,17.5
2017-09-03T18:55:28.525Z,17.4
2017-09-03T18:56:29.897Z,17.3
2017-09-03T18:57:31.280Z,17.3
2017-09-03T18:59:13.640Z,17.3
2017-09-03T19:00:15.010Z,17.3
2017-09-03T19:01:16.387Z,17.3
2017-09-03T19:02:17.764Z,17.3
2017-09-03T19:03:19.133Z,17.2
2017-09-03T19:04:20.505Z,17.3
2017-09-03T19:05:21.878Z,17.2
2017-09-03T19:06:23.252Z,17.2
2017-09-03T19:07:24.618Z,17.1
2017-09-03T19:08:25.996Z,17.1
2017-09-03T19:09:27.400Z,17.1
2017-09-03T19:10:28.765Z,17.2
2017-09-03T19:11:30.222Z,17.1
2017-09-03T19:12:31.605Z,17.0
2017-09-03T19:13:32.998Z,17.1
2017-09-03T19:15:15.445Z,17.0
2017-09-03T19:16:16.805Z,17.0
2017-09-03T19:17:18.220Z,16.9
2017-09-03T19:18:19.594Z,16.9
2017-09-03T19:19:20.976Z,16.9
2017-09-03T19:20:22.341Z,16.9
2017-09-03T19:21:23.713Z,16.9
2017-09-03T19:22:25.088Z,16.9
2017-09-03T19:23:26.470Z,16.8
2017-09-03T19:24:28.016Z,16.9
2017-09-03T19:25:29.538Z,16.8
2017-09-03T19:26:30.928Z,16.8
2017-09-03T19:27:32.344Z,16.8
2017-09-03T19:28:33.731Z,16.7
2017-09-03T19:29:35.103Z,16.7
2017-09-03T19:31:17.458Z,16.7
2017-09-03T19:32:18.830Z,16.7
2017-09-03T19:33:20.201Z,16.7
2017-09-03T19:34:21.578Z,16.7
2017-09-03T19:35:22.949Z,16.7
2017-09-03T19:36:24.319Z,16.7
2017-09-03T19:37:25.693Z,16.7
2017-09-03T19:38:27.084Z,16.6
2017-09-03T19:39:28.454Z,16.6
2017-09-03T19:40:29.823Z,16.6
2017-09-03T19:41:31.193Z,16.6
2017-09-03T19:42:32.570Z,16.6
2017-09-03T19:43:33.949Z,16.6
2017-09-03T19:44:35.321Z,16.6
2017-09-03T19:45:36.694Z,16.5
2017-09-03T19:46:38.060Z,16.5
2017-09-03T19:47:39.438Z,16.5
2017-09-03T19:48:40.811Z,16.5
2017-09-03T19:49:42.189Z,16.5
2017-09-03T19:50:43.776Z,16.5
2017-09-03T19:51:45.198Z,16.5
2017-09-03T19:52:46.783Z,16.5
2017-09-03T19:53:48.144Z,16.4
2017-09-03T19:54:49.512Z,16.5
2017-09-03T19:55:51.124Z,16.4
2017-09-03T19:56:52.561Z,16.5
2017-09-03T19:57:53.977Z,16.5
2017-09-03T19:58:55.351Z,16.5
2017-09-03T19:59:56.846Z,16.5
2017-09-03T20:00:58.243Z,16.5
2017-09-03T20:01:59.623Z,16.5
2017-09-03T20:03:01.006Z,16.5
2017-09-03T20:04:02.383Z,16.5
2017-09-03T20:05:03.755Z,16.4
2017-09-03T20:06:05.133Z,16.5
2017-09-03T20:07:06.556Z,16.5
2017-09-03T20:08:07.967Z,16.5
2017-09-03T20:09:09.349Z,16.4
2017-09-03T20:10:10.749Z,16.4
2017-09-03T20:11:12.183Z,16.5
2017-09-03T20:12:13.603Z,16.5
2017-09-03T20:13:15.016Z,16.5
2017-09-03T20:14:16.461Z,16.5
2017-09-03T20:15:17.884Z,16.4
2017-09-03T20:16:19.247Z,16.4
2017-09-03T20:17:20.782Z,16.4
2017-09-03T20:19:02.136Z,16.4
2017-09-03T20:20:03.509Z,16.4
2017-09-03T20:21:04.888Z,16.4
2017-09-03T20:22:06.319Z,16.4
2017-09-03T20:23:07.699Z,16.3
2017-09-03T20:24:09.075Z,16.3
2017-09-03T20:25:10.475Z,16.3
2017-09-03T20:26:12.281Z,16.4
2017-09-03T20:27:13.754Z,16.4
2017-09-03T20:28:15.394Z,16.4
2017-09-03T20:29:17.139Z,16.4
2017-09-03T20:30:18.540Z,16.4
2017-09-03T20:31:20.068Z,16.4
2017-09-03T20:32:21.510Z,16.4
2017-09-03T20:33:23.043Z,16.5
2017-09-03T20:34:24.491Z,16.5
2017-09-03T20:36:05.833Z,16.5
2017-09-03T20:37:07.355Z,16.4
2017-09-03T20:38:30.334Z,16.4
2017-09-03T20:39:31.762Z,16.3
2017-09-03T20:40:33.127Z,16.3
2017-09-03T20:41:34.498Z,16.3
2017-09-03T20:42:35.870Z,16.4
2017-09-03T20:43:37.497Z,16.3
2017-09-03T20:44:38.874Z,16.3
2017-09-03T20:45:40.328Z,16.3
2017-09-03T20:46:41.684Z,16.4
2017-09-03T20:47:43.057Z,16.5
2017-09-03T20:48:44.520Z,16.5
2017-09-03T20:49:45.907Z,16.5
2017-09-03T20:50:47.285Z,16.5
2017-09-03T20:51:48.740Z,16.5
2017-09-03T20:52:50.110Z,16.5
2017-09-03T20:53:51.594Z,16.4
2017-09-03T20:54:52.972Z,16.4
2017-09-03T20:55:54.347Z,16.4
2017-09-03T20:56:55.733Z,16.4
2017-09-03T20:57:57.103Z,16.4
2017-09-03T20:58:58.479Z,16.4
2017-09-03T20:59:59.851Z,16.5
2017-09-03T21:01:01.253Z,16.4
2017-09-03T21:02:02.613Z,16.4
2017-09-03T21:03:03.984Z,16.3
2017-09-03T21:04:05.360Z,16.3
2017-09-03T21:05:06.736Z,16.3
2017-09-03T21:06:08.107Z,16.3
2017-09-03T21:07:09.482Z,16.3
2017-09-03T21:08:11.188Z,16.3
2017-09-03T21:09:12.898Z,16.3
2017-09-03T21:10:14.555Z,16.3
2017-09-03T21:11:16.190Z,16.3
2017-09-03T21:12:17.877Z,16.3
2017-09-03T21:13:19.852Z,16.3
2017-09-03T21:14:21.485Z,16.2
2017-09-03T21:15:22.860Z,16.2
2017-09-03T21:16:24.371Z,16.2
2017-09-03T21:17:25.790Z,16.2
2017-09-03T21:18:27.729Z,16.2
2017-09-03T21:19:29.164Z,16.1
2017-09-03T21:20:30.676Z,16.1
2017-09-03T21:21:32.073Z,16.1
2017-09-03T21:22:33.461Z,16.2
2017-09-03T21:24:15.813Z,16.1
2017-09-03T21:25:17.187Z,16.2
2017-09-03T21:26:18.560Z,16.1
2017-09-03T21:27:19.931Z,16.1
2017-09-03T21:28:21.320Z,16.1
2017-09-03T21:29:22.712Z,16.1
2017-09-03T21:30:24.084Z,16.1
2017-09-03T21:31:25.454Z,16.1
2017-09-03T21:32:26.823Z,16.1
2017-09-03T21:33:28.202Z,16.0
2017-09-03T21:34:29.573Z,16.0
2017-09-03T21:35:30.944Z,16.1
2017-09-03T21:36:32.334Z,16.1
2017-09-03T21:37:33.705Z,16.1
2017-09-03T21:38:35.085Z,16.1
2017-09-03T21:40:17.454Z,16.1
2017-09-03T21:41:18.827Z,16.1
2017-09-03T21:42:20.201Z,16.1
2017-09-03T21:43:21.591Z,15.9
2017-09-03T21:44:22.954Z,16.1
2017-09-03T21:45:24.346Z,16.0
2017-09-03T21:46:25.715Z,15.9
2017-09-03T21:47:27.104Z,15.9
2017-09-03T21:48:28.477Z,15.9
2017-09-03T21:49:29.846Z,15.8
2017-09-03T21:50:31.289Z,15.8
2017-09-03T21:51:32.658Z,15.8
2017-09-03T21:52:34.051Z,15.8
2017-09-03T21:53:35.423Z,15.7
2017-09-03T21:54:36.796Z,15.7
2017-09-03T21:55:38.168Z,15.6
2017-09-03T21:56:39.537Z,15.6
2017-09-03T21:57:40.926Z,15.6
2017-09-03T21:58:42.931Z,15.6
2017-09-03T21:59:44.343Z,15.6
2017-09-03T22:00:45.760Z,15.6
2017-09-03T22:01:47.249Z,15.7
2017-09-03T22:02:48.704Z,15.7
2017-09-03T22:03:50.084Z,15.6
2017-09-03T22:04:51.485Z,15.6
2017-09-03T22:05:52.925Z,15.6
2017-09-03T22:06:54.299Z,15.5
2017-09-03T22:07:55.736Z,15.5
2017-09-03T22:08:57.123Z,15.5
2017-09-03T22:09:58.488Z,15.5
2017-09-03T22:10:59.870Z,15.3
2017-09-03T22:12:01.528Z,15.4
2017-09-03T22:13:02.977Z,15.3
2017-09-03T22:14:04.452Z,15.3
2017-09-03T22:15:05.825Z,15.2
2017-09-03T22:16:07.352Z,15.3
2017-09-03T22:17:08.729Z,15.3
2017-09-03T22:18:10.366Z,15.3
2017-09-03T22:19:11.797Z,15.3
2017-09-03T22:20:13.218Z,15.2
2017-09-03T22:21:14.627Z,15.2
2017-09-03T22:22:16.006Z,15.2
2017-09-03T22:23:17.377Z,15.2
2017-09-03T22:24:18.748Z,15.2
2017-09-03T22:25:20.146Z,15.2
2017-09-03T22:26:21.581Z,15.1
2017-09-03T22:27:22.951Z,15.1
2017-09-03T22:29:05.319Z,15.1
2017-09-03T22:30:06.733Z,15.0
2017-09-03T22:31:08.102Z,15.0
2017-09-03T22:32:09.483Z,15.0
2017-09-03T22:33:10.855Z,15.1
2017-09-03T22:34:12.232Z,15.1
2017-09-03T22:35:13.609Z,15.0
2017-09-03T22:36:14.978Z,15.0
2017-09-03T22:37:16.353Z,15.0
2017-09-03T22:38:17.718Z,15.0
2017-09-03T22:39:19.093Z,15.0
2017-09-03T22:40:20.471Z,15.0
2017-09-03T22:41:21.848Z,15.0
2017-09-03T22:42:23.218Z,15.0
2017-09-03T22:43:24.590Z,14.9
2017-09-03T22:45:07.121Z,15.1
2017-09-03T22:46:08.495Z,15.0
2017-09-03T22:47:09.861Z,15.1
2017-09-03T22:48:11.332Z,15.1
2017-09-03T22:49:12.706Z,15.1
2017-09-03T22:50:14.081Z,15.2
2017-09-03T22:51:15.459Z,15.1
2017-09-03T22:52:16.838Z,15.2
2017-09-03T22:53:18.208Z,15.1
2017-09-03T22:54:19.580Z,15.1
2017-09-03T22:55:20.948Z,15.1
2017-09-03T22:56:22.534Z,15.1
2017-09-03T22:57:24.195Z,15.1
2017-09-03T22:58:25.838Z,15.1
2017-09-03T22:59:27.399Z,15.2
2017-09-03T23:00:28.802Z,15.2
2017-09-03T23:01:30.170Z,15.1
2017-09-03T23:02:31.728Z,15.0
2017-09-03T23:03:33.103Z,15.1
2017-09-03T23:04:34.477Z,15.2
2017-09-03T23:05:35.868Z,15.2
2017-09-03T23:06:37.258Z,15.1
2017-09-03T23:07:38.741Z,15.2
2017-09-03T23:08:40.248Z,15.2
2017-09-03T23:09:41.728Z,15.2
2017-09-03T23:10:43.205Z,15.2
2017-09-03T23:11:44.574Z,15.2
2017-09-03T23:12:45.955Z,15.2
2017-09-03T23:13:47.406Z,15.2
2017-09-03T23:14:48.790Z,15.2
2017-09-03T23:15:50.253Z,15.2
2017-09-03T23:17:32.634Z,15.2
2017-09-03T23:18:34.006Z,15.2
2017-09-03T23:19:35.374Z,15.3
2017-09-03T23:20:36.748Z,15.2
2017-09-03T23:21:38.113Z,15.1
2017-09-03T23:22:39.501Z,15.1
2017-09-03T23:23:41.277Z,15.1
2017-09-03T23:24:43.193Z,15.1
2017-09-03T23:25:44.743Z,15.1
2017-09-03T23:26:46.173Z,15.1
2017-09-03T23:27:47.532Z,15.0
2017-09-03T23:28:48.987Z,15.0
2017-09-03T23:29:50.362Z,15.1
2017-09-03T23:30:51.744Z,15.1
2017-09-03T23:31:53.116Z,15.1
2017-09-03T23:33:35.471Z,15.1
2017-09-03T23:34:36.839Z,15.1
2017-09-03T23:35:38.264Z,15.1
2017-09-03T23:36:39.634Z,15.1
2017-09-03T23:37:41.003Z,15.0
2017-09-03T23:38:42.376Z,15.1
2017-09-03T23:39:43.746Z,15.1
2017-09-03T23:40:45.119Z,15.0
2017-09-03T23:41:46.489Z,15.1
2017-09-03T23:42:47.857Z,15.0
2017-09-03T23:43:49.227Z,15.1
2017-09-03T23:44:50.598Z,15.1
2017-09-03T23:45:51.979Z,15.0
2017-09-03T23:46:53.350Z,15.0
2017-09-03T23:47:54.755Z,14.9
2017-09-03T23:48:56.098Z,14.9
2017-09-03T23:49:57.465Z,14.9
2017-09-03T23:50:58.839Z,14.8
2017-09-03T23:52:00.211Z,14.8
2017-09-03T23:53:01.578Z,14.8
2017-09-03T23:54:02.965Z,14.8
2017-09-03T23:55:04.340Z,14.6
2017-09-03T23:56:05.863Z,14.6
2017-09-03T23:57:07.264Z,14.6
2017-09-03T23:58:08.639Z,14.6
2017-09-03T23:59:10.016Z,14.5
